This is the latest recevied weather packets stored in our database for station/object OK2BOZ-1. If no packets are shown the sender has not sent any weather packets the latest 10 day(s).
| Time | Temp. | Humidity | Pressure | Rain* | Wind** | Luminosity | Snow |
|---|---|---|---|---|---|---|---|
| 1777618884 | 14.44° C | 53% | 1027.5 hPa | - | - | - | - |
| 1777618570 | 13.33° C | 56% | 1027.5 hPa | - | - | - | - |
| 1777616998 | 12.78° C | 57% | 1027.4 hPa | - | - | - | - |
| 1777616684 | 12.22° C | 59% | 1027.4 hPa | - | - | - | - |
| 1777616369 | 11.67° C | 60% | 1027.5 hPa | - | - | - | - |
| 1777616055 | 11.11° C | 61% | 1027.4 hPa | - | - | - | - |
| 1777615741 | 11.11° C | 60% | 1027.4 hPa | - | - | - | - |
| 1777615427 | 10.56° C | 61% | 1027.4 hPa | - | - | - | - |
| 1777614784 | 10.56° C | 63% | 1027.4 hPa | - | - | - | - |
| 1777566146 | 13.33° C | 34% | 1026.5 hPa | - | - | - | - |
| 1777565832 | 13.33° C | 34% | 1026.6 hPa | - | - | - | - |
| 1777565189 | 13.89° C | 34% | 1026.7 hPa | - | - | - | - |
| 1777564875 | 13.89° C | 33% | 1026.7 hPa | - | - | - | - |
| 1777564561 | 13.89° C | 33% | 1026.7 hPa | - | - | - | - |
| 1777564246 | 13.89° C | 33% | 1026.7 hPa | - | - | - | - |
| 1777563933 | 13.89° C | 33% | 1026.8 hPa | - | - | - | - |
| 1777563618 | 13.89° C | 33% | 1026.8 hPa | - | - | - | - |
| 1777562974 | 13.89° C | 32% | 1026.7 hPa | - | - | - | - |
| 1777562660 | 13.89° C | 31% | 1026.8 hPa | - | - | - | - |
| 1777562345 | 13.89° C | 32% | 1026.7 hPa | - | - | - | - |
| 1777561703 | 13.89° C | 33% | 1026.8 hPa | - | - | - | - |
| 1777561389 | 13.89° C | 32% | 1026.7 hPa | - | - | - | - |
| 1777561073 | 13.89° C | 31% | 1026.8 hPa | - | - | - | - |
| 1777560760 | 13.89° C | 32% | 1026.9 hPa | - | - | - | - |
| 1777560446 | 13.89° C | 32% | 1026.9 hPa | - | - | - | - |
* Rain since midnight (hover to see other rain measurements)
** Current wind speed in m/s (hover to see current wind gust speed)